Camerino, Italy

11:00 PM CET on January 24, 2017 (GMT +0100)
Apiro | | Change Station
Active Advisory: >

Elev 1624 ft 43.34 °N, 13.13 °E | Updated 9 seconds ago

Partly Cloudy
Partly Cloudy
38.3 °F
Feels Like 32 °F
N
8.3
Wind Variable Wind from WNW
Gusts 9.8 mph

Today
High -- | Low -- °F
--% Chance of Precip.
Yesterday
High -- | Low -- °F
Precip. -- in
Pressure 30.01 in
Visibility -9999.0 miles
Clouds
Windchill 32 °F
Dew Point 29 °F
Humidity 68%
Rainfall 0.01 in
Snow Depth Not available.
7:30 AM 5:09 PM
Waning Crescent, 9% visible
METAR LIVF 242055Z 24008KT CAVOK 02/M04 Q1016 RMK FEW FEW090 MON LIB VAL NIL VIS MIN 9999
Pressure 30.01 in
Visibility -9999.0 miles
Clouds
Windchill 32 °F
Dew Point 29 °F
Humidity 68%
Rainfall 0.01 in
Snow Depth Not available.
7:30 AM 5:09 PM
Waning Crescent, 9% visible
METAR LIVF 242055Z 24008KT CAVOK 02/M04 Q1016 RMK FEW FEW090 MON LIB VAL NIL VIS MIN 9999

Get Your Daily Forecast Email!

Thanks for signing up!

Be on the lookout for a verification email in your inbox.

You'll start receiving the daily forecast at 8 AM.

×

10-Day Weather Forecast

×

Almanac

Astronomy

Jan. 24, 2017 Rise Set
Actual Time
Civil Twilight
Nautical Twilight
Astronomical Twilight
Moon
Length of Visible Light
Length of Day
Tomorrow will be .
, % of the Moon is Illuminated

Today's Extremes

Country Highs Country Lows

Community

WunderPhotos

Upload Photos

1,962,540 photos uploaded!

WunderBlog® & News

Nearby

Air Quality

  Air Quality AQ Index Pollutant
Not available.

Snow Depth

Station Depth Elevation

Earthquake Activity

City Distance Mag. Time & Date
Minimum magnitude displayed is 2.5.

Coastal Water Temperatures

Place Temperature

Stations

Nearby Weather Stations

Station Location Temp. Windchill Dew Point Humidity Wind Precip. Elev Updated Type